White Rock, New Mexico
Current Conditions -  °F | °C
As of 9:35 AM on Monday 26 Jan 2015 (Local Time) from KLAM Reporting Station
Clear Clear  
Wind Chill: 42°   Ceiling: Unl
Heat Index: 44°   Visibility: 10mi
Dew Point: 21°   Wind: 5mph
Humidity: 40%   Direction: 360°N
Pressure: 30.41"   Gusts: NA
Location:  35.8375°N, 106.349°W
Report Text: KLAM 261635Z AUTO 36004KT 10SM CLR 07/M06 A3041 RMK AO2 T00681059
Loading
Personal Weather Stations






























Interactive Weather Map New forecast layout! Learn more

10-Day Weather Forecast

Advertisements
Track Severe Weather on mobile